Time;durP1;ratioP1;P1;durP2;ratioP2;P2;SDS_P1;SDS_P2;PMS_P1;PMS_P2;Temp;Humidity;BMP_temperature;BMP_pressure;BME280_temperature;BME280_humidity;BME280_pressure;Samples;Min_cycle;Max_cycle;Signal;HPM_P1;HPM_P2
2021/11/24 00:01:45;;;;;;;10.18;5.85;;;;;;;6.42;100.00;102426.69;6251370;28;20053;-80
2021/11/24 00:04:46;;;;;;;12.15;5.03;;;;;;;6.39;100.00;102429.31;6251379;28;20049;-80
2021/11/24 00:07:48;;;;;;;11.15;4.88;;;;;;;6.38;100.00;102419.75;6251478;28;20049;-80
2021/11/24 00:10:51;;;;;;;9.93;4.97;;;;;;;6.40;100.00;102426.66;6251129;28;20049;-80
2021/11/24 00:13:52;;;;;;;10.02;5.43;;;;;;;6.43;100.00;102416.22;6249739;28;20057;-80
2021/11/24 00:16:53;;;;;;;11.70;5.50;;;;;;;6.46;100.00;102420.56;6251140;28;20116;-80
2021/11/24 00:19:55;;;;;;;12.70;6.13;;;;;;;6.44;100.00;102412.72;6251112;28;20499;-80
2021/11/24 00:22:56;;;;;;;9.07;5.53;;;;;;;6.45;100.00;102417.06;6251866;28;20053;-80
2021/11/24 00:25:59;;;;;;;13.30;5.93;;;;;;;6.46;100.00;102418.81;6255448;28;20045;-79
2021/11/24 00:29:00;;;;;;;17.77;5.65;;;;;;;6.46;100.00;102424.03;6266473;28;20076;-79
2021/11/24 00:32:01;;;;;;;11.80;5.93;;;;;;;6.48;100.00;102421.38;6265901;28;20046;-79
2021/11/24 00:35:04;;;;;;;14.13;7.03;;;;;;;6.45;100.00;102424.00;6265998;28;20054;-79
2021/11/24 00:38:05;;;;;;;14.95;5.80;;;;;;;6.46;100.00;102423.16;6252142;28;20049;-79
2021/11/24 00:41:08;;;;;;;14.80;6.57;;;;;;;6.39;100.00;102417.09;6252027;28;20056;-79
2021/11/24 00:44:09;;;;;;;16.10;7.32;;;;;;;6.38;100.00;102412.78;6251849;28;20067;-79
2021/11/24 00:47:11;;;;;;;13.25;5.80;;;;;;;6.41;100.00;102414.50;6251864;28;20048;-78
2021/11/24 00:50:12;;;;;;;14.93;5.93;;;;;;;6.42;100.00;102413.63;6250827;28;20049;-79
2021/11/24 00:53:13;;;;;;;12.52;6.72;;;;;;;6.42;100.00;102416.22;6251155;28;20420;-79
2021/11/24 00:56:16;;;;;;;19.75;6.50;;;;;;;6.41;100.00;102420.59;6251609;28;20049;-79
2021/11/24 00:59:17;;;;;;;11.82;6.35;;;;;;;6.42;100.00;102406.66;6251965;28;20046;-79
2021/11/24 01:02:19;;;;;;;15.93;6.43;;;;;;;6.41;100.00;102410.16;6251965;28;20050;-79
2021/11/24 01:05:20;;;;;;;13.60;6.30;;;;;;;6.41;100.00;102412.75;6250909;28;20056;-79
2021/11/24 01:08:22;;;;;;;20.85;8.48;;;;;;;6.41;100.00;102397.09;6242883;28;20053;-79
2021/11/24 01:11:25;;;;;;;14.40;6.78;;;;;;;6.39;100.00;102393.59;6249998;28;20069;-79
2021/11/24 01:14:27;;;;;;;16.73;6.00;;;;;;;6.40;100.00;102399.69;6251877;28;20053;-79
2021/11/24 01:17:28;;;;;;;14.43;6.30;;;;;;;6.41;100.00;102404.06;6251730;28;20052;-79
2021/11/24 01:20:29;;;;;;;11.20;5.35;;;;;;;6.39;100.00;102404.06;6251177;28;20053;-79
2021/11/24 01:23:31;;;;;;;11.35;5.68;;;;;;;6.41;100.00;102396.22;6251354;28;20057;-79
2021/11/24 01:26:34;;;;;;;14.00;6.00;;;;;;;6.42;100.00;102397.94;6251826;28;20049;-80
2021/11/24 01:29:35;;;;;;;9.73;5.38;;;;;;;6.41;100.00;102399.69;6251121;28;20052;-80
2021/11/24 01:32:37;;;;;;;17.58;6.40;;;;;;;6.41;100.00;102396.22;6251298;28;20057;-79
2021/11/24 01:35:38;;;;;;;10.90;5.43;;;;;;;6.37;100.00;102384.94;6252369;28;20049;-80
2021/11/24 01:38:40;;;;;;;12.48;5.95;;;;;;;6.38;100.00;102383.19;6251556;28;20050;-79
2021/11/24 01:41:42;;;;;;;12.98;5.80;;;;;;;6.41;100.00;102381.41;6245012;28;20054;-79
2021/11/24 01:44:44;;;;;;;10.75;5.82;;;;;;;6.43;100.00;102387.47;6228190;28;20046;-79
2021/11/24 01:47:46;;;;;;;11.82;5.43;;;;;;;6.41;100.00;102381.41;6230478;28;20050;-79
2021/11/24 01:50:47;;;;;;;16.40;6.15;;;;;;;6.43;100.00;102384.88;6236855;28;20045;-79
2021/11/24 01:53:49;;;;;;;11.77;5.78;;;;;;;6.43;100.00;102379.66;6251441;28;20056;-79
2021/11/24 01:56:52;;;;;;;12.73;4.78;;;;;;;6.41;100.00;102375.34;6249781;28;20049;-79
2021/11/24 01:59:53;;;;;;;12.10;4.95;;;;;;;6.40;100.00;102379.66;6249098;28;20049;-79
2021/11/24 02:02:55;;;;;;;14.35;6.63;;;;;;;6.42;100.00;102377.94;6248673;28;20045;-79
2021/11/24 02:05:57;;;;;;;13.50;6.15;;;;;;;6.40;100.00;102370.97;6248998;28;20053;-79
2021/11/24 02:08:58;;;;;;;12.50;6.10;;;;;;;6.39;100.00;102374.47;6248870;28;20413;-79
2021/11/24 02:12:03;;;;;;;17.38;7.68;;;;;;;6.39;100.00;102354.44;6248246;28;20575;-79
2021/11/24 02:15:10;;;;;;;15.98;7.30;;;;;;;6.33;100.00;102351.91;6249113;28;20053;-79
2021/11/24 02:18:11;;;;;;;14.75;6.43;;;;;;;6.33;100.00;102349.28;6249443;28;20050;-79
2021/11/24 02:21:14;;;;;;;15.93;7.60;;;;;;;6.33;100.00;102352.78;6249271;28;20519;-79
2021/11/24 02:24:17;;;;;;;14.05;6.82;;;;;;;6.31;100.00;102346.72;6248781;28;20049;-79
2021/11/24 02:27:18;;;;;;;15.82;7.18;;;;;;;6.32;100.00;102340.59;6249470;28;20072;-79
2021/11/24 02:30:19;;;;;;;16.35;6.68;;;;;;;6.34;100.00;102345.78;6248385;28;20496;-79
2021/11/24 02:33:21;;;;;;;18.92;6.65;;;;;;;6.33;100.00;102337.09;6248739;28;20072;-79
2021/11/24 02:36:24;;;;;;;19.75;7.18;;;;;;;6.31;100.00;102333.66;6248904;28;20059;-79
2021/11/24 02:39:26;;;;;;;22.80;8.77;;;;;;;6.29;100.00;102332.78;6249119;28;20045;-79
2021/11/24 02:42:27;;;;;;;12.82;6.38;;;;;;;6.28;100.00;102331.06;6246990;28;20049;-79
2021/11/24 02:45:28;;;;;;;16.45;6.55;;;;;;;6.31;100.00;102322.31;6248847;28;20412;-79
2021/11/24 02:48:30;;;;;;;11.60;5.95;;;;;;;6.35;100.00;102324.03;6248501;28;20049;-79
2021/11/24 02:51:32;;;;;;;13.18;6.32;;;;;;;6.37;100.00;102319.66;6248690;28;20049;-79
2021/11/24 02:54:34;;;;;;;13.13;6.22;;;;;;;6.39;100.00;102322.25;6248716;28;20424;-79
2021/11/24 02:57:37;;;;;;;12.35;5.93;;;;;;;6.35;100.00;102319.66;6248315;28;20049;-79
2021/11/24 03:00:38;;;;;;;20.77;7.10;;;;;;;6.36;100.00;102317.94;6248444;28;20049;-79
2021/11/24 03:03:40;;;;;;;13.88;7.22;;;;;;;6.36;100.00;102317.94;6248687;28;20054;-79
2021/11/24 03:06:42;;;;;;;13.57;6.18;;;;;;;6.39;100.00;102319.63;6249426;28;20057;-79
2021/11/24 03:09:45;;;;;;;15.57;6.65;;;;;;;6.42;100.00;102319.63;6247366;28;20057;-79
2021/11/24 03:12:46;;;;;;;13.88;4.70;;;;;;;6.43;100.00;102306.53;6246632;28;20608;-79
2021/11/24 03:15:48;;;;;;;14.25;5.95;;;;;;;6.42;100.00;102310.03;6248140;28;20052;-79
2021/11/24 03:18:49;;;;;;;14.40;6.60;;;;;;;6.43;100.00;102308.28;6247530;28;20048;-79
2021/11/24 03:21:52;;;;;;;13.52;6.85;;;;;;;6.41;100.00;102303.09;6247829;28;20041;-79
2021/11/24 03:24:56;;;;;;;9.52;4.85;;;;;;;6.42;100.00;102296.97;6248253;28;20142;-79
2021/11/24 03:27:57;;;;;;;16.42;6.88;;;;;;;6.43;100.00;102296.09;6248516;28;20061;-79
2021/11/24 03:30:59;;;;;;;9.75;5.68;;;;;;;6.44;100.00;102291.72;6248420;28;20049;-79
2021/11/24 03:34:00;;;;;;;14.15;5.78;;;;;;;6.43;100.00;102288.25;6248348;28;20065;-78
2021/11/24 03:37:03;;;;;;;12.10;6.35;;;;;;;6.40;100.00;102290.03;6248100;28;20045;-79
2021/11/24 03:40:07;;;;;;;12.07;5.38;;;;;;;6.42;100.00;102288.28;6245719;28;20045;-79
2021/11/24 03:43:09;;;;;;;14.55;5.95;;;;;;;6.41;100.00;102287.41;6224018;28;20049;-79
2021/11/24 03:46:10;;;;;;;12.57;5.78;;;;;;;6.41;100.00;102283.94;6237489;28;20420;-79
2021/11/24 03:49:11;;;;;;;12.63;5.93;;;;;;;6.38;100.00;102277.00;6238682;28;20490;-79
2021/11/24 03:52:14;;;;;;;12.52;5.75;;;;;;;6.40;100.00;102279.59;6225254;28;20050;-79
2021/11/24 03:55:17;;;;;;;9.75;5.43;;;;;;;6.38;100.00;102278.75;6228354;28;20057;-79
2021/11/24 03:58:18;;;;;;;11.52;5.85;;;;;;;6.40;100.00;102282.19;6228233;28;20046;-80
2021/11/24 04:01:19;;;;;;;15.85;6.10;;;;;;;6.32;100.00;102277.94;6228328;28;20046;-79
2021/11/24 04:04:21;;;;;;;12.30;5.68;;;;;;;6.32;100.00;102272.72;6228343;28;20057;-79
2021/11/24 04:07:23;;;;;;;11.05;5.75;;;;;;;6.33;100.00;102277.06;6227952;28;20046;-79
2021/11/24 04:10:25;;;;;;;15.93;6.50;;;;;;;6.36;100.00;102276.16;6234175;28;20515;-79
2021/11/24 04:13:26;;;;;;;16.15;5.63;;;;;;;6.33;100.00;102274.44;6252714;28;20053;-79
2021/11/24 04:16:28;;;;;;;12.55;6.05;;;;;;;6.34;100.00;102270.94;6253176;28;20500;-79
2021/11/24 04:19:29;;;;;;;11.15;5.78;;;;;;;6.33;100.00;102274.44;6254356;28;20064;-79
2021/11/24 04:22:32;;;;;;;16.48;6.47;;;;;;;6.33;100.00;102268.34;6251997;28;20054;-79
2021/11/24 04:25:33;;;;;;;12.77;6.20;;;;;;;6.32;100.00;102264.88;6252377;28;20072;-79
2021/11/24 04:28:35;;;;;;;15.18;7.32;;;;;;;6.28;100.00;102254.50;6252253;28;20065;-79
2021/11/24 04:31:36;;;;;;;13.50;5.90;;;;;;;6.28;100.00;102254.50;6251954;28;20052;-79
2021/11/24 04:34:38;;;;;;;14.05;6.65;;;;;;;6.26;100.00;102256.25;6252452;28;20052;-79
2021/11/24 04:37:40;;;;;;;12.35;5.93;;;;;;;6.24;100.00;102258.03;6252644;28;20511;-79
2021/11/24 04:40:42;;;;;;;18.50;6.80;;;;;;;6.23;100.00;102261.53;6251060;28;20053;-79
2021/11/24 04:43:45;;;;;;;16.48;6.93;;;;;;;6.22;100.00;102258.03;6251887;28;20049;-79
2021/11/24 04:46:46;;;;;;;19.23;7.25;;;;;;;6.22;100.00;102254.53;6253582;28;20049;-79
2021/11/24 04:49:48;;;;;;;15.45;5.75;;;;;;;6.21;100.00;102253.69;6252145;28;20389;-79
2021/11/24 04:52:50;;;;;;;17.45;6.22;;;;;;;6.23;100.00;102248.47;6252495;28;20050;-80
2021/11/24 04:55:52;;;;;;;19.85;7.00;;;;;;;6.24;100.00;102248.44;6251919;28;20049;-79
2021/11/24 04:58:54;;;;;;;12.57;5.50;;;;;;;6.26;100.00;102251.03;6250993;28;20056;-79
2021/11/24 05:01:55;;;;;;;17.23;6.28;;;;;;;6.24;100.00;102253.66;6251499;28;20498;-79
2021/11/24 05:04:56;;;;;;;17.60;7.70;;;;;;;6.21;100.00;102245.84;6252048;28;20041;-79
2021/11/24 05:08:01;;;;;;;21.52;7.57;;;;;;;6.17;100.00;102243.28;6252763;28;20068;-79
2021/11/24 05:11:03;;;;;;;19.85;7.47;;;;;;;6.18;100.00;102245.91;6251713;28;20081;-79
2021/11/24 05:14:06;;;;;;;16.52;6.72;;;;;;;6.17;100.00;102246.75;6254028;28;20125;-79
2021/11/24 05:17:12;;;;;;;17.50;6.32;;;;;;;6.18;100.00;102242.44;6253333;28;20516;-79
2021/11/24 05:20:16;;;;;;;18.60;6.28;;;;;;;6.15;100.00;102240.72;6255001;28;20144;-79
2021/11/24 05:23:19;;;;;;;17.48;7.88;;;;;;;6.16;100.00;102249.41;6251697;28;20571;-79
2021/11/24 05:26:20;;;;;;;13.98;6.47;;;;;;;6.19;100.00;102244.16;6251676;28;20479;-79
2021/11/24 05:29:22;;;;;;;20.00;6.88;;;;;;;6.19;100.00;102236.31;6253746;28;20404;-79
2021/11/24 05:32:24;;;;;;;16.67;6.47;;;;;;;6.21;100.00;102240.63;6253629;28;20052;-79
2021/11/24 05:35:26;;;;;;;18.23;6.70;;;;;;;6.20;100.00;102231.06;6253397;28;20143;-79
2021/11/24 05:38:28;;;;;;;14.07;6.78;;;;;;;6.22;100.00;102228.44;6254253;28;20045;-79
2021/11/24 05:41:30;;;;;;;13.15;5.78;;;;;;;6.20;100.00;102225.00;6245783;28;20054;-79
2021/11/24 05:44:34;;;;;;;13.73;5.90;;;;;;;6.20;100.00;102218.03;6228131;28;20413;-79
2021/11/24 05:47:54;;;;;;;15.98;7.45;;;;;;;6.19;100.00;102223.28;6227921;28;20056;-79
2021/11/24 05:50:55;;;;;;;14.88;5.93;;;;;;;6.21;100.00;102226.72;6228991;28;20091;-79
2021/11/24 05:53:58;;;;;;;15.27;6.78;;;;;;;6.21;100.00;102229.31;6229107;28;20056;-80
2021/11/24 05:56:59;;;;;;;18.35;6.35;;;;;;;6.23;100.00;102224.97;6227961;28;20061;-79
2021/11/24 06:00:01;;;;;;;16.17;6.35;;;;;;;6.24;100.00;102219.72;6224988;28;20405;-81
2021/11/24 06:03:03;;;;;;;23.40;7.65;;;;;;;6.21;100.00;102211.06;6228180;28;20054;-81
2021/11/24 06:06:04;;;;;;;12.68;6.43;;;;;;;6.18;100.00;102217.19;6236563;28;20049;-80
2021/11/24 06:09:07;;;;;;;18.08;6.45;;;;;;;6.21;100.00;102211.06;6247720;28;20050;-80
2021/11/24 06:12:09;;;;;;;21.20;7.68;;;;;;;6.20;100.00;102212.81;6270238;28;20432;-80
2021/11/24 06:15:14;;;;;;;11.43;5.10;;;;;;;6.24;100.00;102201.44;6271674;28;20053;-80
2021/11/24 06:18:16;;;;;;;18.23;6.90;;;;;;;6.21;100.00;102198.88;6250580;28;20052;-79
2021/11/24 06:21:20;;;;;;;14.13;6.40;;;;;;;6.20;100.00;102202.38;6248853;28;20056;-79
2021/11/24 06:24:22;;;;;;;18.02;6.47;;;;;;;6.22;100.00;102212.78;6225170;28;20433;-79
2021/11/24 06:27:24;;;;;;;13.60;6.13;;;;;;;6.21;100.00;102208.44;6225372;28;20053;-80
2021/11/24 06:30:25;;;;;;;12.43;6.57;;;;;;;6.23;100.00;102210.16;6225692;28;20060;-79
2021/11/24 06:33:26;;;;;;;15.95;7.13;;;;;;;6.24;100.00;102211.88;6225720;28;20053;-79
2021/11/24 06:36:28;;;;;;;14.60;5.60;;;;;;;6.25;100.00;102210.13;6228367;28;20041;-79
2021/11/24 06:39:31;;;;;;;20.45;6.85;;;;;;;6.23;100.00;102212.78;6237849;28;20048;-79
2021/11/24 06:42:32;;;;;;;15.82;6.35;;;;;;;6.24;100.00;102208.41;6233542;28;20046;-79
2021/11/24 06:45:34;;;;;;;15.32;6.10;;;;;;;6.25;100.00;102205.78;6248148;28;20061;-78
2021/11/24 06:48:36;;;;;;;19.80;7.47;;;;;;;6.25;100.00;102204.91;6247534;28;20057;-78
2021/11/24 06:51:37;;;;;;;16.90;7.10;;;;;;;6.26;100.00;102210.09;6248091;28;20520;-78
2021/11/24 06:54:40;;;;;;;19.77;7.70;;;;;;;6.28;100.00;102199.66;6246895;28;20057;-78
2021/11/24 06:57:41;;;;;;;22.13;8.48;;;;;;;6.27;100.00;102206.66;6247102;28;20528;-78
2021/11/24 07:00:43;;;;;;;21.83;7.40;;;;;;;6.27;100.00;102203.16;6246593;28;20058;-78
2021/11/24 07:03:44;;;;;;;19.27;7.32;;;;;;;6.27;100.00;102209.25;6247352;28;20086;-78
2021/11/24 07:06:46;;;;;;;19.67;7.88;;;;;;;6.28;100.00;102204.91;6246978;28;20408;-78
2021/11/24 07:09:48;;;;;;;21.80;6.95;;;;;;;6.25;100.00;102203.16;6247704;28;20050;-78
2021/11/24 07:12:50;;;;;;;15.15;6.78;;;;;;;6.26;100.00;102204.88;6246996;28;20050;-78
2021/11/24 07:15:51;;;;;;;17.00;7.45;;;;;;;6.26;100.00;102202.28;6247502;28;20485;-78
2021/11/24 07:18:52;;;;;;;15.55;6.80;;;;;;;6.25;100.00;102205.78;6247918;28;20049;-78
2021/11/24 07:21:54;;;;;;;14.55;6.75;;;;;;;6.28;100.00;102204.91;6249339;28;20042;-78
2021/11/24 07:24:56;;;;;;;19.02;7.60;;;;;;;6.29;100.00;102207.47;6249398;28;20052;-78
2021/11/24 07:27:58;;;;;;;15.95;7.70;;;;;;;6.29;100.00;102199.66;6249847;28;20054;-78
2021/11/24 07:30:59;;;;;;;13.77;6.40;;;;;;;6.33;100.00;102203.94;6251866;28;20053;-78
2021/11/24 07:34:01;;;;;;;15.88;6.47;;;;;;;6.34;100.00;102199.59;6252090;28;20056;-78
2021/11/24 07:37:03;;;;;;;17.23;7.60;;;;;;;6.31;100.00;102210.94;6252101;28;20053;-78
2021/11/24 07:40:09;;;;;;;25.40;6.60;;;;;;;6.31;100.00;102208.34;6251514;28;20042;-78
2021/11/24 07:43:10;;;;;;;23.35;7.72;;;;;;;6.32;100.00;102206.59;6250548;28;20065;-78
2021/11/24 07:46:12;;;;;;;17.80;7.70;;;;;;;6.33;100.00;102205.69;6251694;28;20049;-78
2021/11/24 07:49:13;;;;;;;18.25;7.05;;;;;;;6.30;100.00;102206.59;6251623;28;20046;-78
2021/11/24 07:52:14;;;;;;;21.40;6.68;;;;;;;6.31;100.00;102203.13;6251496;28;20440;-79
2021/11/24 07:55:17;;;;;;;20.08;6.85;;;;;;;6.34;100.00;102200.44;6251521;28;20061;-78
2021/11/24 07:58:19;;;;;;;21.42;6.82;;;;;;;6.33;100.00;102193.50;6251531;28;20045;-78
2021/11/24 08:01:21;;;;;;;11.63;7.03;;;;;;;6.35;100.00;102185.66;6251031;28;20582;-78
2021/11/24 08:04:22;;;;;;;15.98;6.13;;;;;;;6.34;100.00;102182.16;6251464;28;20085;-78
2021/11/24 08:07:24;;;;;;;15.07;6.18;;;;;;;6.35;100.00;102183.88;6250866;28;20053;-78
2021/11/24 08:10:26;;;;;;;13.98;6.72;;;;;;;6.38;100.00;102182.16;6249048;28;20046;-78
2021/11/24 08:13:28;;;;;;;16.10;6.50;;;;;;;6.37;100.00;102178.66;6251059;28;20049;-78
2021/11/24 08:16:29;;;;;;;20.05;7.55;;;;;;;6.40;100.00;102186.44;6250931;28;20045;-78
2021/11/24 08:19:31;;;;;;;12.45;6.60;;;;;;;6.43;100.00;102185.56;6251127;28;20084;-78
2021/11/24 08:22:32;;;;;;;18.27;7.13;;;;;;;6.44;100.00;102176.81;6250929;28;20053;-78
2021/11/24 08:25:35;;;;;;;23.25;7.07;;;;;;;6.46;100.00;102183.78;6250758;28;20049;-78
2021/11/24 08:28:36;;;;;;;15.85;6.82;;;;;;;6.45;100.00;102174.22;6251327;28;20071;-78
2021/11/24 08:31:40;;;;;;;12.82;5.50;;;;;;;6.41;100.00;102175.13;6250404;28;20057;-78
2021/11/24 08:34:42;;;;;;;17.70;6.15;;;;;;;6.42;100.00;102170.78;6250900;28;20111;-78
2021/11/24 08:37:43;;;;;;;18.55;6.63;;;;;;;6.39;100.00;102170.81;6250573;28;20049;-78
2021/11/24 08:40:46;;;;;;;12.98;5.00;;;;;;;6.40;100.00;102173.38;6245979;28;20042;-78
2021/11/24 08:43:47;;;;;;;11.68;5.13;;;;;;;6.39;100.00;102166.44;6226066;28;20053;-78
2021/11/24 08:46:49;;;;;;;13.27;4.90;;;;;;;6.36;100.00;102169.13;6225987;28;20420;-78
2021/11/24 08:49:50;;;;;;;8.82;4.15;;;;;;;6.33;100.00;102167.41;6225916;28;20053;-78
2021/11/24 08:52:51;;;;;;;10.13;3.78;;;;;;;6.23;100.00;102162.31;6225434;28;20050;-78
2021/11/24 08:55:54;;;;;;;7.30;3.78;;;;;;;6.22;100.00;102161.47;6226038;28;20046;-78
2021/11/24 08:58:56;;;;;;;8.35;3.58;;;;;;;6.27;100.00;102154.44;6225827;28;20046;-78
2021/11/24 09:01:57;;;;;;;10.07;4.05;;;;;;;6.28;100.00;102158.75;6225661;28;20057;-78
2021/11/24 09:04:59;;;;;;;12.32;4.30;;;;;;;6.32;100.00;102156.97;6225575;28;20508;-78
2021/11/24 09:08:00;;;;;;;10.07;3.95;;;;;;;6.38;100.00;102156.88;6224967;28;20057;-78
2021/11/24 09:11:03;;;;;;;9.38;3.42;;;;;;;6.39;100.00;102162.97;6234893;28;20049;-78
2021/11/24 09:14:05;;;;;;;7.30;3.90;;;;;;;6.38;100.00;102153.41;6253480;28;20055;-78
2021/11/24 09:17:06;;;;;;;7.68;3.33;;;;;;;6.37;100.00;102155.16;6270262;28;20053;-78
2021/11/24 09:20:09;;;;;;;6.82;3.80;;;;;;;6.38;100.00;102156.03;6258325;28;20046;-78
2021/11/24 09:23:12;;;;;;;8.80;3.70;;;;;;;6.40;100.00;102156.88;6250899;28;20045;-78
2021/11/24 09:26:20;;;;;;;11.50;4.80;;;;;;;6.42;100.00;102152.50;6249814;28;20045;-78
2021/11/24 09:29:22;;;;;;;8.98;4.80;;;;;;;6.45;100.00;102155.94;6249508;28;20088;-78
2021/11/24 09:32:23;;;;;;;8.18;4.07;;;;;;;6.51;100.00;102153.22;6248813;28;20046;-78
2021/11/24 09:35:25;;;;;;;10.88;3.88;;;;;;;6.54;100.00;102161.03;6249019;28;20421;-78
2021/11/24 09:38:26;;;;;;;10.63;5.25;;;;;;;6.53;100.00;102153.19;6249318;28;20049;-78
2021/11/24 09:41:30;;;;;;;9.38;3.83;;;;;;;6.55;100.00;102152.31;6246863;28;20056;-78
2021/11/24 09:44:32;;;;;;;11.70;3.90;;;;;;;6.57;100.00;102144.44;6249327;28;20061;-78
2021/11/24 09:47:34;;;;;;;9.02;3.88;;;;;;;6.58;100.00;102140.94;6249410;28;20060;-78
2021/11/24 09:50:38;;;;;;;13.18;5.57;;;;;;;6.66;100.00;102146.06;6248001;28;20053;-78
2021/11/24 09:53:40;;;;;;;15.73;5.30;;;;;;;6.63;100.00;102144.34;6248849;28;20045;-78
2021/11/24 09:56:45;;;;;;;8.93;3.95;;;;;;;6.63;100.00;102138.25;6248674;28;20164;-78
2021/11/24 09:59:47;;;;;;;7.43;3.65;;;;;;;6.68;100.00;102141.69;6248767;28;20049;-78
2021/11/24 10:02:48;;;;;;;7.95;3.65;;;;;;;6.69;100.00;102131.22;6248251;28;20065;-78
2021/11/24 10:05:49;;;;;;;6.45;3.30;;;;;;;6.73;100.00;102119.84;6248356;28;20515;-78
2021/11/24 10:08:51;;;;;;;9.82;3.53;;;;;;;6.75;100.00;102115.44;6248146;28;20045;-78
2021/11/24 10:11:54;;;;;;;8.30;3.88;;;;;;;6.79;100.00;102109.28;6229012;28;20050;-78
2021/11/24 10:14:55;;;;;;;7.60;3.90;;;;;;;6.75;100.00;102110.22;6223838;28;20058;-78
2021/11/24 10:18:11;;;;;;;9.38;4.53;;;;;;;6.77;100.00;102100.63;6223635;28;20061;-78
2021/11/24 10:21:15;;;;;;;7.65;4.20;;;;;;;6.80;100.00;102105.78;6223937;28;20157;-78
2021/11/24 10:24:16;;;;;;;8.77;3.78;;;;;;;6.72;100.00;102099.81;6224373;28;20050;-78
2021/11/24 10:27:34;;;;;;;10.50;5.07;;;;;;;6.81;100.00;102096.19;6223663;28;20493;-78
2021/11/24 10:30:35;;;;;;;12.07;4.38;;;;;;;6.81;100.00;102090.94;6223631;28;20050;-78
2021/11/24 10:33:36;;;;;;;12.00;4.57;;;;;;;6.80;100.00;102082.25;6222704;28;20057;-78
2021/11/24 10:36:49;;;;;;;7.78;3.75;;;;;;;6.88;100.00;102087.38;6223722;28;20053;-78
2021/11/24 10:39:56;;;;;;;8.40;4.03;;;;;;;6.90;100.00;102082.97;6224573;28;20057;-78
2021/11/24 10:43:12;;;;;;;8.07;3.42;;;;;;;6.88;100.00;102086.50;6223388;28;20131;-78
2021/11/24 10:46:17;;;;;;;5.63;2.35;;;;;;;6.89;100.00;102083.84;6223126;28;20512;-78
2021/11/24 10:49:18;;;;;;;5.93;3.28;;;;;;;6.80;100.00;102077.03;6223208;28;20521;-78
2021/11/24 10:52:23;;;;;;;4.63;2.58;;;;;;;6.74;100.00;102068.44;6222918;28;20050;-78
2021/11/24 10:55:27;;;;;;;5.10;2.53;;;;;;;6.76;100.00;102061.44;6222696;28;20076;-78
2021/11/24 10:58:30;;;;;;;4.88;2.22;;;;;;;6.79;100.00;102053.56;6222923;28;20196;-78
2021/11/24 11:01:31;;;;;;;6.28;2.83;;;;;;;6.67;100.00;102052.00;6224663;28;20054;-78
2021/11/24 11:04:32;;;;;;;3.08;1.88;;;;;;;6.59;100.00;102048.66;6228110;28;20133;-78
2021/11/24 11:07:36;;;;;;;5.90;3.05;;;;;;;6.65;100.00;102055.53;6227517;28;20057;-78
2021/11/24 11:10:39;;;;;;;6.00;2.20;;;;;;;6.63;100.00;102044.22;6237950;28;20413;-78
2021/11/24 11:13:42;;;;;;;6.60;3.13;;;;;;;6.54;100.00;102040.91;6252156;28;20083;-78
2021/11/24 11:16:46;;;;;;;3.40;1.70;;;;;;;6.40;100.00;102032.38;6252251;28;20052;-78
2021/11/24 11:19:49;;;;;;;4.70;1.92;;;;;;;6.38;100.00;102026.34;6251800;28;20041;-78
2021/11/24 11:22:54;;;;;;;2.53;1.60;;;;;;;6.38;100.00;102020.25;6251768;28;20512;-78
2021/11/24 11:25:57;;;;;;;3.92;1.60;;;;;;;6.28;100.00;102015.19;6251930;28;20045;-78
2021/11/24 11:29:00;;;;;;;2.70;1.20;;;;;;;6.34;100.00;102016.84;6252064;28;20070;-78
2021/11/24 11:32:02;;;;;;;3.40;1.35;;;;;;;6.33;100.00;102008.13;6251423;28;20408;-78
2021/11/24 11:35:05;;;;;;;1.05;0.60;;;;;;;6.29;100.00;102009.06;6252127;28;20505;-78
2021/11/24 11:38:06;;;;;;;1.75;0.45;;;;;;;6.36;100.00;101994.19;6251791;28;20076;-78
2021/11/24 11:41:08;;;;;;;0.88;0.38;;;;;;;6.42;100.00;101994.09;6250064;28;20057;-78
2021/11/24 11:44:17;;;;;;;1.05;0.30;;;;;;;6.48;100.00;101987.88;6252930;28;20056;-78
2021/11/24 11:47:47;;;;;;;0.38;0.30;;;;;;;6.47;100.00;101968.75;6253382;28;20057;-78
2021/11/24 11:50:58;;;;;;;0.85;0.32;;;;;;;6.49;100.00;101966.97;6228176;28;20049;-78
2021/11/24 11:54:00;;;;;;;0.70;0.40;;;;;;;6.53;100.00;101960.81;6245326;28;20061;-78
2021/11/24 11:57:04;;;;;;;0.50;0.30;;;;;;;6.54;100.00;101949.50;6237705;28;20060;-78
2021/11/24 12:00:08;;;;;;;0.70;0.35;;;;;;;6.62;100.00;101946.72;6242696;28;20045;-78
2021/11/24 12:03:10;;;;;;;0.32;0.30;;;;;;;6.72;100.00;101942.19;6228008;28;20049;-78
2021/11/24 12:06:19;;;;;;;0.10;0.10;;;;;;;6.72;100.00;101936.97;6226638;28;20050;-78
2021/11/24 12:09:28;;;;;;;0.10;0.10;;;;;;;6.68;100.00;101936.19;6225903;28;20081;-78
2021/11/24 12:12:33;;;;;;;0.73;0.40;;;;;;;6.65;100.00;101935.38;6225714;28;20057;-78
2021/11/24 12:15:36;;;;;;;0.40;0.38;;;;;;;6.65;100.00;101925.78;6226549;28;20300;-78
2021/11/24 12:19:17;;;;;;;0.10;0.10;;;;;;;6.67;100.00;101920.53;6233656;28;20500;-78
2021/11/24 12:22:52;;;;;;;0.47;0.45;;;;;;;6.75;100.00;101916.03;6272970;28;20049;-78
2021/11/24 12:25:55;;;;;;;0.25;0.25;;;;;;;6.73;100.00;101908.22;6261977;28;20085;-78
2021/11/24 12:28:56;;;;;;;0.55;0.40;;;;;;;6.76;100.00;101902.94;6252115;28;20053;-79
2021/11/24 12:32:01;;;;;;;0.85;0.60;;;;;;;6.77;100.00;101898.59;6250186;28;20057;-78
2021/11/24 12:35:07;;;;;;;2.95;0.70;;;;;;;6.75;100.00;101895.13;6251326;28;20052;-79
2021/11/24 12:38:09;;;;;;;0.90;0.30;;;;;;;6.75;100.00;101882.94;6250444;28;20057;-78
2021/11/24 12:41:12;;;;;;;0.75;0.57;;;;;;;6.79;100.00;101888.97;6250116;28;20041;-78
2021/11/24 12:44:16;;;;;;;1.10;0.60;;;;;;;6.81;100.00;101888.06;6250480;28;20053;-78
2021/11/24 12:47:22;;;;;;;2.25;0.95;;;;;;;6.79;100.00;101876.75;6250502;28;20056;-78
2021/11/24 12:50:24;;;;;;;3.70;0.95;;;;;;;6.76;100.00;101878.56;6225813;28;20054;-78
2021/11/24 12:53:25;;;;;;;2.85;1.40;;;;;;;6.74;100.00;101864.69;6225225;28;20049;-78
2021/11/24 12:56:29;;;;;;;0.93;0.80;;;;;;;6.70;100.00;101861.25;6225567;28;20046;-78
2021/11/24 12:59:32;;;;;;;2.17;1.20;;;;;;;6.68;100.00;101852.59;6224859;28;20049;-78
2021/11/24 13:02:35;;;;;;;1.40;1.10;;;;;;;6.70;100.00;101853.41;6237239;28;20448;-78
2021/11/24 13:05:36;;;;;;;2.40;1.15;;;;;;;6.74;100.00;101843.78;6248750;28;20428;-78
2021/11/24 13:08:37;;;;;;;3.67;1.60;;;;;;;6.76;100.00;101852.44;6247608;28;20053;-78
2021/11/24 13:11:52;;;;;;;3.85;2.35;;;;;;;6.85;100.00;101847.88;6245096;28;20069;-78
2021/11/24 13:14:58;;;;;;;7.68;3.45;;;;;;;6.79;100.00;101844.53;6246494;28;20132;-79
2021/11/24 13:18:01;;;;;;;7.55;2.53;;;;;;;6.79;100.00;101840.19;6249368;28;20061;-78
2021/11/24 13:21:08;;;;;;;7.25;3.05;;;;;;;6.79;100.00;101832.34;6249100;28;20045;-78
2021/11/24 13:24:09;;;;;;;7.35;2.92;;;;;;;6.80;100.00;101830.59;6248305;28;20064;-78
2021/11/24 13:27:11;;;;;;;11.07;3.55;;;;;;;6.83;100.00;101831.38;6249350;28;20049;-78
2021/11/24 13:30:15;;;;;;;11.57;4.68;;;;;;;6.82;100.00;101819.22;6249123;28;20203;-78
2021/11/24 13:33:22;;;;;;;9.38;3.70;;;;;;;6.79;100.00;101819.28;6249195;28;20053;-79
2021/11/24 13:36:23;;;;;;;13.43;5.05;;;;;;;6.80;100.00;101817.53;6247790;28;20511;-78
2021/11/24 13:39:26;;;;;;;10.88;5.15;;;;;;;6.80;100.00;101817.53;6234501;28;20050;-78
2021/11/24 13:42:39;;;;;;;9.43;4.03;;;;;;;6.80;100.00;101817.53;6223992;28;20050;-78
2021/11/24 13:45:43;;;;;;;7.95;3.65;;;;;;;6.79;100.00;101806.22;6224431;28;20449;-78
2021/11/24 13:48:48;;;;;;;6.85;3.53;;;;;;;6.80;100.00;101809.69;6223954;28;20053;-78
2021/11/24 13:52:01;;;;;;;10.10;4.03;;;;;;;6.75;100.00;101793.25;6223706;28;20046;-78
2021/11/24 13:55:03;;;;;;;11.27;4.90;;;;;;;6.72;100.00;101790.69;6224070;28;20064;-78
2021/11/24 13:58:07;;;;;;;14.07;3.97;;;;;;;6.69;100.00;101794.25;6224162;28;20050;-78
2021/11/24 14:01:17;;;;;;;12.55;3.78;;;;;;;6.70;100.00;101790.72;6223427;28;20053;-78
2021/11/24 14:04:29;;;;;;;10.00;3.88;;;;;;;6.70;100.00;101793.34;6223959;28;20050;-78